Brazoria County Airport
KLBX : now visible

Airfield :











YOU CAN JOIN US ON...

 
LOGIN :

Register | Disclaimer

   EN    FR    IT 

 









Legend :    VFR   Marginal VFR   IFR   Intensive IFR   Very Intensive IFR
Visi :
Ceiling :
>= 8 km
>= 3000ft
5 to 8 km
1000 to 3000 ft
1500m to 5 km
500 to 1000 ft
800 to 1500m
200 to 500 ft
< 800m
< 200 ft
Symbols :   Thunderstorms  Fog  Heavy snow  Heavy precipitations  Wind > 20 kt






- Airport Elevation : 25 ft


KLBX - Brazoria County

CURRENT METAR :
  • 171102Z AUTO 12005KT 9SM SCT014 OVC021 23/22 A2993 RMK AO2 T02330222

EXPIRED METARs :
  • 170953Z AUTO 16006KT 8SM OVC016 23/22 A2992 RMK AO2 SLP132 T02330222
  • 170853Z AUTO 17008KT 8SM OVC018 23/23 A2991 RMK AO2 SLP129 T02330228 51004
  • 170837Z AUTO 16009KT 8SM SCT009 BKN018 OVC022 23/23 A2990 RMK AO2 T02330228
  • 170817Z AUTO 20007KT 8SM BKN010 OVC020 23/23 A2992 RMK AO2 T02330228
  • 170753Z AUTO 18011KT 8SM SCT010 OVC019 23/23 A2991 RMK AO2 SLP129 T02330228
  • 170728Z AUTO 17011KT 8SM SCT010 BKN022 23/23 A2990 RMK AO2 T02330228
  • 170653Z AUTO 17010KT 8SM OVC010 23/23 A2991 RMK AO2 CIG 008V013 SLP127 T02330228
  • 170630Z AUTO 18009KT 8SM BKN011 OVC025 23/23 A2992 RMK AO2 T02330228

TAF KLBX
Valid from the 17 at 06:00 until the 18 at 06:00 UTC


170520Z 1706/1806 16010G19KT P6SM BKN011 OVC027
FM170800 18009KT 6SM BR SCT007 BKN012
FM171100 15006KT 4SM BR OVC007
FM171500 15011KT P6SM OVC015
FM171700 15009KT P6SM BKN040
FM180000 13010KT P6SM BKN016
KZHU FIR / North America



MET'MAP, your aeronautical weather chart ! - Copyright ORBIFLY December 2007 - Disclaimer

ORBIFLY MET'MAP TEAM :

Programming & Development : Alexandra Zaïnal
Original concept : Baudouin d'Aumeries
Technical & hardware support : Manuel Goepfert
Assistance : Marc-Olivier Méhu




SOURCES & CREDITS :

   NOAA       Earth
Advisory